createdAt,value
2019-01-25T00:01:07.501Z,54.37
2019-01-25T00:03:55.804Z,59.57
2019-01-25T00:06:44.131Z,57.53
2019-01-25T00:09:32.099Z,55.43
2019-01-25T00:12:20.304Z,57.27
2019-01-25T00:15:09.402Z,57.37
2019-01-25T00:17:57.876Z,57.83
2019-01-25T00:20:45.601Z,55.70
2019-01-25T00:23:33.525Z,56.30
2019-01-25T00:26:22.105Z,55.43
2019-01-25T00:29:10.003Z,56.63
2019-01-25T00:31:58.511Z,56.47
2019-01-25T00:34:46.480Z,59.40
2019-01-25T00:37:35.456Z,54.73
2019-01-25T00:40:23.951Z,52.53
2019-01-25T00:43:12.318Z,51.30
2019-01-25T00:46:00.543Z,49.73
2019-01-25T00:48:49.015Z,48.90
2019-01-25T00:51:37.219Z,46.97
2019-01-25T00:54:26.041Z,42.73
2019-01-25T00:57:14.427Z,40.33
2019-01-25T01:00:02.786Z,40.30
2019-01-25T01:02:51.172Z,46.40
2019-01-25T01:05:39.732Z,52.90
2019-01-25T01:08:27.699Z,55.80
2019-01-25T01:11:16.362Z,55.60
2019-01-25T01:14:04.812Z,54.60
2019-01-25T01:16:52.857Z,55.33
2019-01-25T01:19:40.919Z,54.87
2019-01-25T01:22:29.350Z,39.93
2019-01-25T01:25:17.020Z,43.97
2019-01-25T01:28:05.729Z,43.17
2019-01-25T01:30:53.520Z,46.20
2019-01-25T01:33:41.744Z,38.53
2019-01-25T01:36:30.460Z,34.73
2019-01-25T01:39:18.806Z,31.90
2019-01-25T01:42:07.573Z,31.10
2019-01-25T01:44:55.681Z,36.63
2019-01-25T01:47:44.223Z,35.23
2019-01-25T01:50:32.577Z,33.27
2019-01-25T01:53:21.353Z,38.33
2019-01-25T01:56:09.333Z,40.63
2019-01-25T01:58:57.472Z,31.10
2019-01-25T02:01:45.656Z,26.37
2019-01-25T02:04:33.919Z,27.70
2019-01-25T02:07:22.360Z,26.50
2019-01-25T02:10:13.911Z,27.67
2019-01-25T02:13:01.848Z,27.23
2019-01-25T02:15:49.877Z,27.73
2019-01-25T02:18:37.888Z,29.60
2019-01-25T02:21:26.253Z,31.37
2019-01-25T02:24:14.965Z,28.80
2019-01-25T02:27:03.379Z,33.77
2019-01-25T02:29:52.259Z,29.30
2019-01-25T02:32:40.303Z,31.53
2019-01-25T02:35:28.545Z,29.77
2019-01-25T02:38:16.903Z,34.67
2019-01-25T02:41:04.996Z,31.13
2019-01-25T02:43:53.581Z,32.87
2019-01-25T02:46:42.447Z,29.67
2019-01-25T02:49:31.027Z,29.60
2019-01-25T02:52:18.870Z,32.17
2019-01-25T02:55:08.044Z,30.43
2019-01-25T02:57:56.092Z,32.37
2019-01-25T03:00:44.252Z,32.20
2019-01-25T03:03:32.983Z,33.00
2019-01-25T03:06:21.244Z,33.30
2019-01-25T03:09:10.545Z,30.30
2019-01-25T03:11:58.368Z,32.73
2019-01-25T03:14:46.852Z,31.90
2019-01-25T03:17:35.582Z,33.20
2019-01-25T03:20:24.035Z,31.90
2019-01-25T03:23:12.835Z,33.07
2019-01-25T03:26:00.889Z,31.63
2019-01-25T03:28:48.931Z,30.67
2019-01-25T03:31:37.984Z,30.43
2019-01-25T03:34:26.558Z,31.53
2019-01-25T03:37:14.726Z,33.03
2019-01-25T03:40:03.047Z,32.90
2019-01-25T03:42:51.687Z,33.10
2019-01-25T03:45:39.738Z,33.57
2019-01-25T03:48:27.842Z,34.43
2019-01-25T03:51:15.777Z,31.17
2019-01-25T03:54:04.141Z,33.87
2019-01-25T03:56:51.850Z,35.17
2019-01-25T03:59:40.026Z,36.10
2019-01-25T04:02:28.200Z,34.23
2019-01-25T04:05:16.354Z,35.77
2019-01-25T04:08:05.114Z,34.70
2019-01-25T04:10:53.478Z,35.77
2019-01-25T04:13:40.967Z,34.03
2019-01-25T04:16:28.791Z,34.53
2019-01-25T04:19:16.898Z,34.53
2019-01-25T04:22:05.139Z,36.80
2019-01-25T04:24:53.035Z,33.27
2019-01-25T04:27:41.620Z,36.30
2019-01-25T04:30:32.770Z,37.60
2019-01-25T04:33:20.411Z,38.30
2019-01-25T04:36:08.635Z,39.97
2019-01-25T04:38:57.025Z,38.37
2019-01-25T04:41:45.704Z,39.00
2019-01-25T04:44:34.079Z,36.97
2019-01-25T04:47:27.684Z,37.30
2019-01-25T04:50:20.928Z,37.90
2019-01-25T04:53:09.010Z,34.40
2019-01-25T04:55:57.561Z,36.77
2019-01-25T04:58:45.687Z,37.20
2019-01-25T05:01:33.663Z,38.27
2019-01-25T05:04:21.892Z,36.53
2019-01-25T05:07:10.148Z,40.00
2019-01-25T05:09:58.340Z,41.00
2019-01-25T05:12:53.158Z,39.17
2019-01-25T05:15:41.778Z,40.97
2019-01-25T05:18:30.035Z,40.30
2019-01-25T05:21:23.224Z,39.93
2019-01-25T05:24:12.519Z,39.20
2019-01-25T05:27:01.109Z,39.10
2019-01-25T05:29:53.942Z,38.43
2019-01-25T05:32:42.214Z,38.97
2019-01-25T05:35:34.771Z,38.50
2019-01-25T05:38:22.283Z,39.63
2019-01-25T05:41:10.663Z,40.43
2019-01-25T05:43:59.199Z,39.37
2019-01-25T05:46:48.224Z,37.40
2019-01-25T05:49:35.830Z,34.40
2019-01-25T05:52:24.110Z,38.27
2019-01-25T05:55:16.526Z,41.17
2019-01-25T05:58:06.144Z,39.77
2019-01-25T06:00:54.680Z,40.03
2019-01-25T06:03:43.790Z,38.90
2019-01-25T06:06:31.690Z,40.93
2019-01-25T06:09:21.151Z,39.77
2019-01-25T06:12:09.952Z,41.13
2019-01-25T06:14:58.902Z,38.23
2019-01-25T06:17:47.327Z,39.00
2019-01-25T06:20:34.882Z,41.80
2019-01-25T06:23:23.235Z,41.77
2019-01-25T06:26:12.843Z,38.73
2019-01-25T06:29:01.278Z,39.67
2019-01-25T06:31:49.318Z,38.67
2019-01-25T06:34:38.051Z,42.57
2019-01-25T06:37:26.241Z,41.37
2019-01-25T06:40:14.159Z,38.07
2019-01-25T06:43:02.675Z,39.33
2019-01-25T06:45:50.681Z,42.70
2019-01-25T06:48:39.118Z,40.43
2019-01-25T06:51:27.354Z,42.93
2019-01-25T06:54:15.382Z,40.77
2019-01-25T06:57:07.926Z,40.90
2019-01-25T06:59:55.427Z,40.60
2019-01-25T07:02:43.632Z,41.17
2019-01-25T07:05:32.091Z,41.73
2019-01-25T07:08:20.606Z,40.30
2019-01-25T07:11:08.365Z,40.40
2019-01-25T07:13:56.254Z,44.47
2019-01-25T07:16:44.872Z,41.13
2019-01-25T07:19:32.786Z,44.73
2019-01-25T07:22:21.384Z,42.30
2019-01-25T07:25:10.715Z,40.17
2019-01-25T07:27:58.714Z,44.17
2019-01-25T07:30:47.123Z,42.23
2019-01-25T07:33:35.080Z,42.43
2019-01-25T07:36:23.241Z,42.83
2019-01-25T07:39:20.641Z,41.80
2019-01-25T07:42:09.425Z,42.33
2019-01-25T07:44:58.187Z,40.30
2019-01-25T07:47:45.947Z,44.30
2019-01-25T07:50:33.639Z,42.00
2019-01-25T07:53:22.320Z,43.67
2019-01-25T07:56:10.373Z,43.73
2019-01-25T07:58:58.291Z,45.10
2019-01-25T08:01:46.030Z,42.23
2019-01-25T08:04:34.970Z,43.83
2019-01-25T08:07:23.015Z,40.90
2019-01-25T08:10:13.488Z,43.60
2019-01-25T08:13:02.406Z,45.57
2019-01-25T08:15:50.347Z,45.77
2019-01-25T08:18:38.174Z,43.90
2019-01-25T08:21:26.121Z,43.30
2019-01-25T08:24:14.784Z,42.13
2019-01-25T08:27:02.745Z,43.10
2019-01-25T08:29:51.023Z,45.97
2019-01-25T08:32:39.348Z,46.80
2019-01-25T08:35:27.259Z,47.73
2019-01-25T08:38:15.755Z,44.97
2019-01-25T08:41:03.883Z,46.10
2019-01-25T08:43:51.802Z,45.57
2019-01-25T08:46:40.222Z,45.23
2019-01-25T08:49:27.902Z,44.57
2019-01-25T08:52:16.140Z,47.17
2019-01-25T08:55:04.445Z,43.37
2019-01-25T08:57:52.403Z,44.40
2019-01-25T09:00:41.087Z,44.60
2019-01-25T09:03:28.646Z,45.53
2019-01-25T09:06:20.631Z,45.87
2019-01-25T09:09:10.427Z,45.50
2019-01-25T09:11:58.206Z,44.83
2019-01-25T09:14:45.947Z,45.40
2019-01-25T09:17:34.102Z,42.67
2019-01-25T09:20:22.679Z,44.97
2019-01-25T09:23:11.034Z,41.10
2019-01-25T09:26:01.037Z,43.37
2019-01-25T09:28:48.412Z,41.67
2019-01-25T09:31:36.619Z,48.10
2019-01-25T09:34:24.593Z,43.67
2019-01-25T09:37:13.011Z,43.30
2019-01-25T09:40:01.253Z,43.77
2019-01-25T09:42:49.655Z,44.10
2019-01-25T09:45:37.958Z,41.33
2019-01-25T09:48:26.066Z,42.67
2019-01-25T09:51:14.194Z,46.43
2019-01-25T09:54:02.171Z,44.30
2019-01-25T09:56:50.203Z,41.70
2019-01-25T09:59:38.474Z,43.83
2019-01-25T10:02:26.682Z,39.17
2019-01-25T10:05:15.143Z,40.80
2019-01-25T10:08:03.458Z,37.93
2019-01-25T10:10:51.543Z,37.57
2019-01-25T10:13:39.963Z,38.23
2019-01-25T10:16:27.899Z,40.17
2019-01-25T10:19:16.333Z,36.53
2019-01-25T10:22:04.415Z,40.30
2019-01-25T10:24:52.708Z,40.07
2019-01-25T10:27:41.095Z,39.87
2019-01-25T10:30:29.278Z,43.27
2019-01-25T10:33:18.114Z,46.77
2019-01-25T10:36:06.315Z,43.00
2019-01-25T10:38:54.639Z,51.00
2019-01-25T10:41:43.047Z,48.10
2019-01-25T10:44:31.439Z,46.93
2019-01-25T10:47:19.465Z,44.93
2019-01-25T10:50:08.191Z,50.77
2019-01-25T10:52:56.615Z,48.57
2019-01-25T10:55:44.408Z,47.60
2019-01-25T10:58:32.826Z,48.40
2019-01-25T11:01:21.457Z,52.83
2019-01-25T11:04:11.619Z,52.20
2019-01-25T11:06:58.918Z,51.23
2019-01-25T11:09:47.143Z,51.97
2019-01-25T11:12:35.040Z,50.90
2019-01-25T11:15:23.854Z,49.43
2019-01-25T11:18:11.799Z,52.37
2019-01-25T11:20:59.710Z,52.70
2019-01-25T11:23:48.019Z,50.90
2019-01-25T11:26:36.567Z,53.80
2019-01-25T11:29:24.270Z,51.40
2019-01-25T11:32:12.684Z,53.63
2019-01-25T11:35:00.367Z,50.50
2019-01-25T11:37:48.674Z,50.93
2019-01-25T11:40:39.771Z,68.93
2019-01-25T11:43:28.285Z,52.63
2019-01-25T11:46:16.255Z,50.70
2019-01-25T11:49:04.330Z,54.17
2019-01-25T11:51:52.404Z,67.10
2019-01-25T11:54:40.346Z,58.37
2019-01-25T11:57:28.499Z,59.07
2019-01-25T12:00:22.458Z,51.23
2019-01-25T12:03:10.564Z,51.47
2019-01-25T12:05:58.447Z,55.17
2019-01-25T12:08:46.474Z,57.10
2019-01-25T12:11:35.319Z,55.97
2019-01-25T12:14:23.086Z,52.37
2019-01-25T12:17:11.026Z,54.47
2019-01-25T12:19:59.543Z,54.80
2019-01-25T12:22:47.948Z,52.50
2019-01-25T12:25:35.983Z,52.73
2019-01-25T12:28:24.703Z,51.97
2019-01-25T12:31:13.235Z,51.33
2019-01-25T12:34:02.890Z,51.30
2019-01-25T12:36:51.476Z,47.20
2019-01-25T12:39:39.394Z,46.27
2019-01-25T12:42:27.604Z,41.83
2019-01-25T12:45:18.460Z,46.23
2019-01-25T12:48:06.730Z,45.57
2019-01-25T12:51:19.291Z,48.67
2019-01-25T12:54:07.082Z,46.13
2019-01-25T12:56:55.526Z,44.30
2019-01-25T12:59:43.752Z,45.30
2019-01-25T13:02:31.571Z,47.87
2019-01-25T13:05:19.515Z,52.47
2019-01-25T13:08:08.394Z,47.20
2019-01-25T13:10:56.116Z,48.00
2019-01-25T13:13:44.119Z,47.43
2019-01-25T13:16:31.691Z,43.17
2019-01-25T13:19:19.408Z,45.67
2019-01-25T13:22:07.859Z,42.23
2019-01-25T13:24:55.859Z,42.50
2019-01-25T13:27:44.114Z,41.30
2019-01-25T13:30:32.603Z,46.30
2019-01-25T13:33:20.249Z,43.17
2019-01-25T13:36:11.970Z,42.90
2019-01-25T13:39:00.089Z,45.13
2019-01-25T13:41:48.570Z,44.50
2019-01-25T13:44:37.174Z,46.83
2019-01-25T13:47:24.688Z,42.13
2019-01-25T13:50:15.206Z,40.57
2019-01-25T13:53:03.414Z,40.80
2019-01-25T13:55:51.774Z,38.20
2019-01-25T13:58:39.967Z,37.30
2019-01-25T14:01:34.517Z,37.80
2019-01-25T14:04:17.806Z,37.27
2019-01-25T14:07:06.323Z,38.23
2019-01-25T14:09:54.623Z,39.40
2019-01-25T14:12:42.752Z,35.37
2019-01-25T14:15:30.906Z,35.17
2019-01-25T14:18:18.431Z,35.13
2019-01-25T14:21:06.909Z,34.33
2019-01-25T14:23:54.884Z,35.60
2019-01-25T14:26:43.354Z,35.77
2019-01-25T14:29:31.339Z,34.53
2019-01-25T14:32:19.774Z,33.37
2019-01-25T14:35:07.590Z,32.13
2019-01-25T14:37:55.853Z,32.47
2019-01-25T14:40:43.811Z,32.40
2019-01-25T14:43:32.246Z,34.03
2019-01-25T14:46:20.949Z,31.97
2019-01-25T14:49:09.475Z,28.83
2019-01-25T14:51:57.527Z,28.93
2019-01-25T14:54:45.606Z,30.50
2019-01-25T14:57:34.191Z,30.43
2019-01-25T15:00:22.371Z,29.80
2019-01-25T15:03:10.566Z,28.57
2019-01-25T15:05:58.727Z,27.80
2019-01-25T15:08:47.479Z,28.60
2019-01-25T15:11:36.271Z,27.50
2019-01-25T15:14:24.598Z,24.93
2019-01-25T15:17:12.707Z,25.73
2019-01-25T15:20:00.987Z,28.33
2019-01-25T15:22:49.263Z,26.10
2019-01-25T15:25:37.687Z,27.67
2019-01-25T15:28:25.959Z,26.60
2019-01-25T15:31:14.499Z,27.70
2019-01-25T15:34:02.698Z,27.83
2019-01-25T15:36:51.279Z,28.70
2019-01-25T15:39:39.811Z,27.20
2019-01-25T15:42:27.955Z,28.40
2019-01-25T15:45:16.835Z,29.10
2019-01-25T15:48:05.439Z,29.67
2019-01-25T15:50:53.390Z,27.60
2019-01-25T15:53:41.874Z,27.83
2019-01-25T15:56:30.258Z,28.70
2019-01-25T15:59:18.240Z,27.67
2019-01-25T16:02:06.649Z,29.17
2019-01-25T16:04:54.739Z,28.17
2019-01-25T16:07:42.854Z,29.57
2019-01-25T16:10:31.308Z,28.17
2019-01-25T16:13:19.354Z,29.47
2019-01-25T16:16:07.498Z,29.07
2019-01-25T16:18:55.451Z,29.23
2019-01-25T16:21:43.954Z,27.47
2019-01-25T16:24:31.810Z,28.13
2019-01-25T16:27:19.575Z,28.13
2019-01-25T16:30:10.671Z,29.50
2019-01-25T16:32:59.135Z,28.90
2019-01-25T16:35:46.950Z,37.00
2019-01-25T16:38:35.146Z,36.87
2019-01-25T16:41:23.254Z,29.43
2019-01-25T16:44:11.602Z,30.80
2019-01-25T16:46:59.762Z,33.00
2019-01-25T16:49:48.435Z,31.70
2019-01-25T16:52:36.719Z,33.27
2019-01-25T16:55:24.606Z,36.80
2019-01-25T16:58:12.802Z,34.50
2019-01-25T17:01:01.278Z,35.80
2019-01-25T17:03:49.943Z,34.73
2019-01-25T17:06:37.850Z,31.80
2019-01-25T17:09:26.003Z,33.07
2019-01-25T17:12:13.526Z,33.93
2019-01-25T17:15:02.038Z,34.30
2019-01-25T17:17:50.016Z,34.30
2019-01-25T17:20:37.898Z,35.33
2019-01-25T17:23:26.071Z,34.97
2019-01-25T17:26:15.007Z,33.60
2019-01-25T17:29:03.347Z,37.77
2019-01-25T17:31:51.454Z,40.07
2019-01-25T17:34:39.585Z,37.60
2019-01-25T17:37:27.918Z,38.53
2019-01-25T17:40:17.270Z,37.37
2019-01-25T17:43:05.692Z,38.37
2019-01-25T17:45:53.588Z,37.90
2019-01-25T17:48:41.823Z,39.90
2019-01-25T17:51:29.978Z,38.57
2019-01-25T17:54:18.693Z,39.93
2019-01-25T17:57:06.842Z,36.27
2019-01-25T17:59:54.757Z,37.33
2019-01-25T18:02:42.379Z,39.80
2019-01-25T18:05:30.592Z,38.90
2019-01-25T18:08:18.650Z,34.53
2019-01-25T18:11:06.494Z,27.63
2019-01-25T18:13:54.715Z,37.43
2019-01-25T18:16:43.210Z,38.67
2019-01-25T18:19:31.898Z,38.00
2019-01-25T18:22:19.614Z,32.63
2019-01-25T18:25:09.603Z,34.50
2019-01-25T18:28:01.805Z,31.13
2019-01-25T18:30:56.131Z,30.73
2019-01-25T18:33:44.404Z,28.60
2019-01-25T18:36:32.725Z,28.77
2019-01-25T18:39:21.322Z,30.30
2019-01-25T18:42:09.518Z,37.83
2019-01-25T18:44:57.294Z,28.17
2019-01-25T18:47:45.579Z,27.03
2019-01-25T18:50:34.747Z,30.10
2019-01-25T18:53:23.148Z,28.77
2019-01-25T18:56:13.384Z,26.07
2019-01-25T18:59:01.473Z,24.40
2019-01-25T19:01:50.770Z,25.20
2019-01-25T19:04:39.462Z,24.67
2019-01-25T19:07:27.666Z,20.80
2019-01-25T19:10:21.830Z,23.23
2019-01-25T19:13:10.138Z,20.30
2019-01-25T19:15:58.694Z,21.10
2019-01-25T19:18:47.154Z,20.70
2019-01-25T19:21:34.762Z,23.77
2019-01-25T19:24:22.787Z,23.03
2019-01-25T19:27:10.675Z,20.83
2019-01-25T19:29:58.465Z,20.70
2019-01-25T19:32:47.224Z,21.83
2019-01-25T19:35:35.490Z,21.73
2019-01-25T19:38:24.034Z,24.10
2019-01-25T19:41:11.515Z,23.80
2019-01-25T19:43:59.863Z,25.77
2019-01-25T19:46:49.210Z,21.33
2019-01-25T19:49:37.112Z,23.50
2019-01-25T19:52:25.342Z,24.93
2019-01-25T19:55:17.255Z,25.57
2019-01-25T19:58:07.384Z,23.80
2019-01-25T20:00:55.522Z,25.53
2019-01-25T20:03:43.091Z,25.07
2019-01-25T20:06:31.299Z,24.80
2019-01-25T20:09:19.413Z,22.67
2019-01-25T20:12:07.017Z,21.93
2019-01-25T20:14:54.882Z,22.00
2019-01-25T20:17:43.222Z,20.90
2019-01-25T20:20:32.755Z,20.10
2019-01-25T20:23:21.206Z,22.30
2019-01-25T20:26:09.503Z,19.77
2019-01-25T20:28:57.490Z,21.07
2019-01-25T20:31:45.819Z,23.90
2019-01-25T20:34:34.322Z,20.97
2019-01-25T20:37:22.610Z,20.30
2019-01-25T20:40:12.696Z,18.53
2019-01-25T20:43:00.756Z,20.30
2019-01-25T20:45:48.591Z,18.53
2019-01-25T20:48:36.487Z,15.77
2019-01-25T20:51:24.206Z,18.10
2019-01-25T20:54:12.328Z,19.67
2019-01-25T20:57:00.342Z,16.33
2019-01-25T20:59:48.795Z,16.70
2019-01-25T21:02:37.138Z,15.40
2019-01-25T21:05:25.546Z,17.30
2019-01-25T21:08:13.182Z,17.07
2019-01-25T21:11:01.251Z,19.00
2019-01-25T21:13:49.488Z,16.63
2019-01-25T21:16:37.492Z,18.97
2019-01-25T21:19:25.916Z,18.77
2019-01-25T21:22:14.583Z,15.27
2019-01-25T21:25:02.730Z,17.93
2019-01-25T21:27:50.626Z,17.63
2019-01-25T21:30:39.019Z,17.40
2019-01-25T21:33:27.247Z,18.03
2019-01-25T21:36:15.690Z,18.23
2019-01-25T21:39:07.980Z,20.30
2019-01-25T21:41:56.582Z,22.97
2019-01-25T21:44:45.823Z,31.43
2019-01-25T21:47:34.051Z,19.17
2019-01-25T21:50:24.919Z,20.10
2019-01-25T21:53:13.314Z,23.90
2019-01-25T21:56:01.995Z,25.40
2019-01-25T21:58:50.152Z,23.50
2019-01-25T22:01:39.022Z,23.57
2019-01-25T22:04:27.216Z,21.97
2019-01-25T22:07:16.459Z,18.87
2019-01-25T22:10:08.154Z,23.73
2019-01-25T22:12:56.595Z,20.70
2019-01-25T22:15:50.823Z,19.50
2019-01-25T22:18:33.871Z,19.70
2019-01-25T22:21:21.819Z,17.67
2019-01-25T22:24:09.891Z,17.80
2019-01-25T22:26:58.616Z,15.07
2019-01-25T22:29:46.283Z,18.63
2019-01-25T22:32:33.790Z,22.43
2019-01-25T22:35:22.514Z,21.93
2019-01-25T22:38:10.616Z,17.00
2019-01-25T22:40:58.630Z,20.70
2019-01-25T22:43:46.802Z,18.93
2019-01-25T22:46:35.280Z,17.70
2019-01-25T22:49:24.080Z,21.60
2019-01-25T22:52:12.271Z,18.97
2019-01-25T22:55:00.723Z,18.93
2019-01-25T22:57:49.496Z,19.20
2019-01-25T23:01:05.291Z,21.03
2019-01-25T23:04:46.706Z,19.20
2019-01-25T23:07:34.672Z,19.07
2019-01-25T23:10:23.342Z,20.57
2019-01-25T23:13:11.442Z,21.50
2019-01-25T23:16:06.138Z,19.20
2019-01-25T23:18:49.334Z,20.37
2019-01-25T23:21:37.486Z,19.60
2019-01-25T23:24:25.915Z,20.90
2019-01-25T23:27:14.115Z,25.47
2019-01-25T23:30:02.245Z,22.00
2019-01-25T23:32:50.759Z,23.13
2019-01-25T23:35:38.742Z,21.30
2019-01-25T23:38:26.423Z,23.17
2019-01-25T23:41:14.910Z,23.93
2019-01-25T23:44:04.329Z,21.87
2019-01-25T23:46:52.722Z,23.10
2019-01-25T23:49:41.086Z,24.70
2019-01-25T23:52:29.322Z,25.10
2019-01-25T23:55:17.588Z,20.63
2019-01-25T23:58:06.041Z,20.90
